APL New York — 9V9916 — position and weather

sailwx.info

Track history (hours):
 
Tides and Currents Weather Stations Pressure Air Temp Water Temp Dewpoint Dewpoint Depression Visibility Wind Speed Wind Dir Waves Ship Positions

APL New York

Last reported at 2018-Jun-19 00:24 UTC. Time now 2018-Jun-19 00:53 UTC.
Position N 01°16' E 103°48'.

Length 328 m; draft 10.5 m.

Type: Ship (hazmat cat A). MMSI: 566879000.

Date/timePositionNaut miles runAvg speedWind from/ knotsBaromVisibWave heightAir tempDewpointWater temp
2018-Jun-19 00:24N 01°16' E 103°48'0 0.0
2018-Jun-18 23:59N 01°16' E 103°48'0 0.0
2018-Jun-18 23:30N 01°16' E 103°48'0 0.0
2018-Jun-18 22:59N 01°16' E 103°48'0 0.0
2018-Jun-18 22:30N 01°16' E 103°48'0 0.0
2018-Jun-18 21:50N 01°16' E 103°48'0 0.0
2018-Jun-18 21:29N 01°16' E 103°48'0 0.0
2018-Jun-18 21:01N 01°16' E 103°48'0 0.0
2018-Jun-18 20:31N 01°16' E 103°48'0 0.0
2018-Jun-18 19:59N 01°16' E 103°48'0 0.0
2018-Jun-18 19:30N 01°16' E 103°48'0 0.9
2018-Jun-18 19:00N 01°16' E 103°48'3 5.1
2018-Jun-18 18:30N 01°15' E 103°45'5 9.2
2018-Jun-18 18:00N 01°13' E 103°41'5 9.4
2018-Jun-18 17:30N 01°12' E 103°36'4 7.3
2018-Jun-18 16:59N 01°12' E 103°33'4 7.4
2018-Jun-18 16:30N 01°10' E 103°29'5 8.7
2018-Jun-18 15:59N 01°12' E 103°25'510.7
2018-Jun-18 15:30N 01°16' E 103°21'715.0
2018-Jun-18 15:00N 01°20' E 103°16'1018.6
2018-Jun-18 14:29N 01°26' E 103°08'  
Track history (hours):
 
Tides and Currents Weather Stations Pressure Air Temp Water Temp Dewpoint Dewpoint Depression Visibility Wind Speed Wind Dir Waves Ship Positions

APL New York

Last reported at 2018-Jun-19 00:24 UTC. Time now 2018-Jun-19 00:53 UTC.
Position N 01°16' E 103°48'.

Length 328 m; draft 10.5 m.

Type: Ship (hazmat cat A). MMSI: 566879000.

Date/timePositionNaut miles runAvg speedWind from/ knotsBaromVisibWave heightAir tempDewpointWater temp
2018-Jun-19 00:24N 01°16' E 103°48'0 0.0
2018-Jun-18 23:59N 01°16' E 103°48'0 0.0
2018-Jun-18 23:30N 01°16' E 103°48'0 0.0
2018-Jun-18 22:59N 01°16' E 103°48'0 0.0
2018-Jun-18 22:30N 01°16' E 103°48'0 0.0
2018-Jun-18 21:50N 01°16' E 103°48'0 0.0
2018-Jun-18 21:29N 01°16' E 103°48'0 0.0
2018-Jun-18 21:01N 01°16' E 103°48'0 0.0
2018-Jun-18 20:31N 01°16' E 103°48'0 0.0
2018-Jun-18 19:59N 01°16' E 103°48'0 0.0
2018-Jun-18 19:30N 01°16' E 103°48'0 0.9
2018-Jun-18 19:00N 01°16' E 103°48'3 5.1
2018-Jun-18 18:30N 01°15' E 103°45'5 9.2
2018-Jun-18 18:00N 01°13' E 103°41'5 9.4
2018-Jun-18 17:30N 01°12' E 103°36'4 7.3
2018-Jun-18 16:59N 01°12' E 103°33'4 7.4
2018-Jun-18 16:30N 01°10' E 103°29'5 8.7
2018-Jun-18 15:59N 01°12' E 103°25'510.7
2018-Jun-18 15:30N 01°16' E 103°21'715.0
2018-Jun-18 15:00N 01°20' E 103°16'1018.6
2018-Jun-18 14:29N 01°26' E 103°08'  

Dump ship's entire track history